Time;durP1;ratioP1;P1;durP2;ratioP2;P2;SDS_P1;SDS_P2;PMS_P1;PMS_P2;Temp;Humidity;BMP_temperature;BMP_pressure;BME280_temperature;BME280_humidity;BME280_pressure;Samples;Min_cycle;Max_cycle;Signal;HPM_P1;HPM_P2
2021/08/04 00:02:03;;;;;;;2.57;1.40;;;;;;;;;;4542637;28;20458;-67
2021/08/04 00:04:13;;;;;;;1.58;1.35;;;;;;;;;;4542450;28;20080;-67
2021/08/04 00:06:24;;;;;;;1.87;1.40;;;;;;;;;;4543175;28;20479;-67
2021/08/04 00:08:34;;;;;;;2.67;1.60;;;;;;;;;;4543108;28;20131;-67
2021/08/04 00:10:44;;;;;;;1.50;1.10;;;;;;;;;;4544968;28;20183;-67
2021/08/04 00:12:55;;;;;;;2.80;1.57;;;;;;;;;;4541628;28;20044;-66
2021/08/04 00:15:07;;;;;;;2.43;1.60;;;;;;;;;;4524705;28;20124;-66
2021/08/04 00:17:17;;;;;;;1.75;1.50;;;;;;;;;;4541026;28;20087;-67
2021/08/04 00:19:28;;;;;;;1.50;1.30;;;;;;;;;;4541592;28;20087;-66
2021/08/04 00:21:38;;;;;;;1.93;1.13;;;;;;;;;;4541704;28;20068;-66
2021/08/04 00:23:49;;;;;;;1.43;1.30;;;;;;;;;;4527872;28;20280;-66
2021/08/04 00:25:59;;;;;;;1.47;1.33;;;;;;;;;;4541606;28;20044;-66
2021/08/04 00:28:10;;;;;;;1.40;1.30;;;;;;;;;;4542939;28;30326;-66
2021/08/04 00:30:21;;;;;;;2.00;1.33;;;;;;;;;;4543617;28;20029;-66
2021/08/04 00:32:31;;;;;;;2.22;1.45;;;;;;;;;;4541466;28;20521;-66
2021/08/04 00:34:42;;;;;;;1.77;1.50;;;;;;;;;;4547360;28;20041;-66
2021/08/04 00:36:52;;;;;;;1.83;1.50;;;;;;;;;;4543523;28;20040;-66
2021/08/04 00:39:03;;;;;;;2.20;1.60;;;;;;;;;;4540358;28;20041;-66
2021/08/04 00:41:14;;;;;;;1.30;1.20;;;;;;;;;;4541312;28;20034;-66
2021/08/04 00:43:24;;;;;;;1.90;1.30;;;;;;;;;;4527269;28;20086;-66
2021/08/04 00:45:35;;;;;;;2.50;1.37;;;;;;;;;;4521632;28;20139;-67
2021/08/04 00:47:46;;;;;;;1.42;1.23;;;;;;;;;;4545000;28;20060;-66
2021/08/04 00:49:56;;;;;;;1.77;1.43;;;;;;;;;;4543640;28;20791;-66
2021/08/04 00:52:08;;;;;;;1.80;1.37;;;;;;;;;;4525333;28;20037;-66
2021/08/04 00:54:18;;;;;;;2.75;1.33;;;;;;;;;;4542542;28;20056;-66
2021/08/04 00:56:29;;;;;;;2.73;1.37;;;;;;;;;;4529629;28;20051;-66
2021/08/04 00:58:41;;;;;;;2.90;1.67;;;;;;;;;;4541995;28;20278;-67
2021/08/04 01:00:57;;;;;;;1.40;1.30;;;;;;;;;;4525204;28;20164;-67
2021/08/04 01:03:09;;;;;;;1.48;1.38;;;;;;;;;;4542071;28;20112;-66
2021/08/04 01:05:30;;;;;;;1.70;1.40;;;;;;;;;;4529668;28;20603;-66
2021/08/04 01:07:44;;;;;;;2.10;1.70;;;;;;;;;;4544091;28;20037;-66
2021/08/04 01:10:13;;;;;;;2.58;1.40;;;;;;;;;;4527103;28;20112;-67
2021/08/04 01:12:31;;;;;;;3.15;1.52;;;;;;;;;;4544208;28;20041;-67
2021/08/04 01:14:42;;;;;;;2.60;1.48;;;;;;;;;;4529827;28;20116;-66
2021/08/04 01:16:54;;;;;;;2.15;1.73;;;;;;;;;;4544235;28;21148;-66
2021/08/04 01:19:30;;;;;;;1.85;1.50;;;;;;;;;;4528298;28;20049;-66
2021/08/04 01:21:48;;;;;;;2.92;1.83;;;;;;;;;;4542576;28;20103;-66
2021/08/04 01:24:11;;;;;;;2.58;1.67;;;;;;;;;;4544631;28;20039;-66
2021/08/04 01:26:38;;;;;;;2.00;1.55;;;;;;;;;;4527763;28;20140;-66
2021/08/04 01:28:50;;;;;;;1.70;1.50;;;;;;;;;;4544129;28;20044;-66
2021/08/04 01:31:04;;;;;;;1.85;1.38;;;;;;;;;;4545055;28;20033;-66
2021/08/04 01:33:15;;;;;;;1.60;1.42;;;;;;;;;;4537456;28;20041;-66
2021/08/04 01:35:26;;;;;;;1.90;1.42;;;;;;;;;;4544849;28;20040;-66
2021/08/04 01:37:37;;;;;;;1.80;1.60;;;;;;;;;;4544581;28;20044;-66
2021/08/04 01:39:49;;;;;;;2.15;1.55;;;;;;;;;;4545170;28;20084;-66
2021/08/04 01:42:02;;;;;;;3.28;1.63;;;;;;;;;;4526516;28;20040;-66
2021/08/04 01:44:14;;;;;;;2.30;1.63;;;;;;;;;;4543468;28;20072;-66
2021/08/04 01:46:24;;;;;;;1.90;1.40;;;;;;;;;;4545052;28;20031;-66
2021/08/04 01:48:37;;;;;;;1.90;1.40;;;;;;;;;;4527719;28;26195;-65
2021/08/04 01:50:50;;;;;;;2.40;1.60;;;;;;;;;;4531407;28;21017;-66
2021/08/04 01:53:00;;;;;;;1.67;1.42;;;;;;;;;;4543416;28;20041;-66
2021/08/04 01:55:12;;;;;;;1.87;1.67;;;;;;;;;;4542875;28;21091;-67
2021/08/04 01:57:23;;;;;;;1.92;1.30;;;;;;;;;;4510564;28;20052;-66
2021/08/04 01:59:33;;;;;;;1.70;1.50;;;;;;;;;;4543957;28;20140;-64
2021/08/04 02:01:44;;;;;;;1.67;1.50;;;;;;;;;;4544854;28;20474;-67
2021/08/04 02:03:54;;;;;;;1.57;1.47;;;;;;;;;;4543447;28;20099;-66
2021/08/04 02:06:38;;;;;;;2.20;1.50;;;;;;;;;;4544838;28;20033;-66
2021/08/04 02:09:00;;;;;;;3.85;1.50;;;;;;;;;;4546653;28;20263;-66
2021/08/04 02:11:21;;;;;;;2.17;1.40;;;;;;;;;;4542652;28;20110;-68
2021/08/04 02:13:38;;;;;;;1.80;1.50;;;;;;;;;;4560116;28;21287;-66
2021/08/04 02:15:51;;;;;;;2.15;1.60;;;;;;;;;;4528610;28;20052;-66
2021/08/04 02:18:24;;;;;;;2.63;1.52;;;;;;;;;;4544124;28;20739;-66
2021/08/04 02:20:38;;;;;;;3.70;1.73;;;;;;;;;;4545857;28;20645;-65
2021/08/04 02:23:00;;;;;;;1.42;1.33;;;;;;;;;;4545462;28;20029;-66
2021/08/04 02:25:12;;;;;;;2.03;1.40;;;;;;;;;;4544626;28;20025;-67
2021/08/04 02:27:22;;;;;;;;;;;;;;;;;;4546245;28;20692;-66
2021/08/04 02:29:35;;;;;;;2.27;1.23;;;;;;;;;;4544637;28;19970;-66
2021/08/04 02:31:46;;;;;;;2.75;1.30;;;;;;;;;;4543839;28;20094;-66
2021/08/04 02:33:57;;;;;;;;;;;;;;;;;;4529506;28;20049;-66
2021/08/04 02:36:08;;;;;;;2.73;1.20;;;;;;;;;;4527510;28;20419;-66
2021/08/04 02:38:18;;;;;;;1.98;1.40;;;;;;;;;;4527006;28;20045;-66
2021/08/04 02:40:29;;;;;;;1.30;1.20;;;;;;;;;;4543153;28;20037;-66
2021/08/04 02:42:40;;;;;;;1.57;1.30;;;;;;;;;;4545537;28;20385;-66
2021/08/04 02:44:51;;;;;;;1.75;1.50;;;;;;;;;;4548174;28;20558;-66
2021/08/04 02:47:02;;;;;;;2.10;1.40;;;;;;;;;;4543961;28;20043;-66
2021/08/04 02:49:16;;;;;;;1.60;1.50;;;;;;;;;;4543693;28;20553;-66
2021/08/04 02:51:27;;;;;;;1.80;1.58;;;;;;;;;;4528422;28;20038;-66
2021/08/04 02:53:38;;;;;;;1.40;1.30;;;;;;;;;;4543900;28;20032;-66
2021/08/04 02:55:50;;;;;;;1.45;1.25;;;;;;;;;;4543506;28;20037;-67
2021/08/04 02:58:01;;;;;;;2.50;1.73;;;;;;;;;;4524477;28;20049;-66
2021/08/04 03:00:12;;;;;;;2.10;1.63;;;;;;;;;;4541581;28;20578;-66
2021/08/04 03:02:22;;;;;;;1.98;1.48;;;;;;;;;;4540633;28;20071;-66
2021/08/04 03:04:33;;;;;;;2.73;1.70;;;;;;;;;;4526583;28;20668;-66
2021/08/04 03:06:43;;;;;;;1.83;1.53;;;;;;;;;;4545233;28;20027;-66
2021/08/04 03:08:54;;;;;;;1.70;1.60;;;;;;;;;;4542595;28;20032;-66
2021/08/04 03:11:06;;;;;;;2.20;1.83;;;;;;;;;;4543764;28;20550;-66
2021/08/04 03:13:17;;;;;;;2.90;1.67;;;;;;;;;;4543302;28;20041;-66
2021/08/04 03:15:27;;;;;;;1.83;1.33;;;;;;;;;;4541958;28;20473;-66
2021/08/04 03:17:38;;;;;;;1.67;1.40;;;;;;;;;;4544071;28;20091;-66
2021/08/04 03:19:48;;;;;;;1.70;1.60;;;;;;;;;;4541413;28;20036;-66
2021/08/04 03:21:59;;;;;;;1.57;1.37;;;;;;;;;;4543843;28;24611;-66
2021/08/04 03:24:09;;;;;;;3.47;1.50;;;;;;;;;;4544376;28;20041;-66
2021/08/04 03:26:20;;;;;;;2.27;1.40;;;;;;;;;;4542415;28;20036;-66
2021/08/04 03:28:30;;;;;;;2.37;1.70;;;;;;;;;;4542531;28;20064;-67
2021/08/04 03:30:41;;;;;;;2.50;1.60;;;;;;;;;;4543015;28;20035;-66
2021/08/04 03:32:51;;;;;;;2.53;1.80;;;;;;;;;;4538472;28;20083;-66
2021/08/04 03:35:02;;;;;;;1.97;1.57;;;;;;;;;;4545244;28;20037;-66
2021/08/04 03:37:12;;;;;;;2.03;1.67;;;;;;;;;;4542578;28;20847;-66
2021/08/04 03:39:23;;;;;;;2.50;1.90;;;;;;;;;;4543427;28;20037;-66
2021/08/04 03:41:33;;;;;;;2.00;1.60;;;;;;;;;;4544381;28;20075;-66
2021/08/04 03:43:43;;;;;;;1.93;1.60;;;;;;;;;;4541423;28;20485;-66
2021/08/04 03:45:54;;;;;;;1.63;1.53;;;;;;;;;;4544457;28;20040;-66
2021/08/04 03:48:04;;;;;;;2.47;1.90;;;;;;;;;;4540949;28;20040;-66
2021/08/04 03:50:15;;;;;;;2.33;1.63;;;;;;;;;;4542574;28;20052;-66
2021/08/04 03:52:25;;;;;;;1.50;1.40;;;;;;;;;;4542164;28;26483;-66
2021/08/04 03:54:36;;;;;;;2.17;1.70;;;;;;;;;;4539912;28;30060;-66
2021/08/04 03:56:46;;;;;;;2.70;1.80;;;;;;;;;;4542671;28;20486;-66
2021/08/04 03:58:56;;;;;;;2.33;1.63;;;;;;;;;;4542630;28;20037;-66
2021/08/04 04:01:07;;;;;;;1.97;1.50;;;;;;;;;;4539822;28;25374;-66
2021/08/04 04:03:17;;;;;;;1.90;1.70;;;;;;;;;;4544586;28;32981;-66
2021/08/04 04:05:27;;;;;;;2.03;1.73;;;;;;;;;;4540164;28;25188;-66
2021/08/04 04:07:38;;;;;;;2.53;1.77;;;;;;;;;;4543437;28;20149;-66
2021/08/04 04:09:48;;;;;;;1.77;1.47;;;;;;;;;;4542797;28;20037;-65
2021/08/04 04:11:59;;;;;;;2.20;1.60;;;;;;;;;;4542161;28;27598;-66
2021/08/04 04:14:09;;;;;;;2.17;1.60;;;;;;;;;;4542719;28;20482;-66
2021/08/04 04:16:20;;;;;;;2.40;1.60;;;;;;;;;;4545254;28;20028;-66
2021/08/04 04:18:30;;;;;;;1.97;1.67;;;;;;;;;;4540478;28;20039;-66
2021/08/04 04:20:40;;;;;;;2.10;1.70;;;;;;;;;;4545487;28;20039;-66
2021/08/04 04:22:51;;;;;;;1.63;1.50;;;;;;;;;;4541985;28;27586;-66
2021/08/04 04:25:01;;;;;;;2.43;1.67;;;;;;;;;;4542991;28;24275;-66
2021/08/04 04:27:12;;;;;;;2.77;1.70;;;;;;;;;;4543827;28;20043;-66
2021/08/04 04:29:22;;;;;;;1.83;1.67;;;;;;;;;;4525537;28;20041;-65
2021/08/04 04:31:33;;;;;;;2.47;1.53;;;;;;;;;;4543625;28;20064;-66
2021/08/04 04:33:43;;;;;;;2.23;1.60;;;;;;;;;;4541840;28;20597;-66
2021/08/04 04:35:55;;;;;;;2.30;1.50;;;;;;;;;;4542471;28;20065;-66
2021/08/04 04:38:05;;;;;;;3.03;1.60;;;;;;;;;;4541051;28;20036;-66
2021/08/04 04:40:16;;;;;;;2.27;1.90;;;;;;;;;;4541775;28;20041;-66
2021/08/04 04:42:26;;;;;;;4.43;1.87;;;;;;;;;;4540965;28;20491;-66
2021/08/04 04:44:37;;;;;;;2.80;1.70;;;;;;;;;;4543143;28;20068;-66
2021/08/04 04:46:47;;;;;;;2.73;2.00;;;;;;;;;;4543267;28;20037;-66
2021/08/04 04:48:57;;;;;;;1.60;1.50;;;;;;;;;;4542542;28;20060;-66
2021/08/04 04:51:09;;;;;;;3.47;1.73;;;;;;;;;;4541839;28;20139;-66
2021/08/04 04:53:19;;;;;;;2.38;1.60;;;;;;;;;;4540594;28;21341;-66
2021/08/04 04:55:30;;;;;;;2.03;1.50;;;;;;;;;;4539192;28;20045;-66
2021/08/04 04:57:40;;;;;;;1.80;1.53;;;;;;;;;;4543927;28;20041;-66
2021/08/04 04:59:51;;;;;;;2.92;1.80;;;;;;;;;;4541251;28;20462;-66
2021/08/04 05:02:01;;;;;;;2.10;1.70;;;;;;;;;;4540047;28;20514;-66
2021/08/04 05:04:12;;;;;;;1.43;1.33;;;;;;;;;;4542131;28;20053;-66
2021/08/04 05:06:22;;;;;;;1.80;1.53;;;;;;;;;;4538298;28;20041;-66
2021/08/04 05:08:33;;;;;;;2.77;1.83;;;;;;;;;;4539321;28;20072;-65
2021/08/04 05:10:43;;;;;;;1.93;1.60;;;;;;;;;;4527470;28;20068;-66
2021/08/04 05:12:53;;;;;;;2.23;1.70;;;;;;;;;;4538410;28;23473;-66
2021/08/04 05:15:05;;;;;;;2.47;1.70;;;;;;;;;;4540168;28;33922;-66
2021/08/04 05:17:16;;;;;;;1.83;1.63;;;;;;;;;;4542644;28;21025;-66
2021/08/04 05:19:26;;;;;;;2.60;1.70;;;;;;;;;;4544196;28;20029;-66
2021/08/04 05:21:36;;;;;;;2.20;1.90;;;;;;;;;;4542325;28;20094;-66
2021/08/04 05:23:47;;;;;;;2.80;1.73;;;;;;;;;;4541142;28;20033;-65
2021/08/04 05:25:57;;;;;;;4.73;1.70;;;;;;;;;;4541293;28;20396;-66
2021/08/04 05:28:08;;;;;;;3.27;1.53;;;;;;;;;;4542040;28;20087;-66
2021/08/04 05:30:18;;;;;;;2.30;1.80;;;;;;;;;;4542159;28;20119;-65
2021/08/04 05:32:28;;;;;;;2.30;1.67;;;;;;;;;;4541648;28;20037;-65
2021/08/04 05:34:39;;;;;;;2.10;1.70;;;;;;;;;;4539719;28;20037;-66
2021/08/04 05:36:49;;;;;;;1.70;1.50;;;;;;;;;;4543890;28;20048;-66
2021/08/04 05:39:00;;;;;;;1.77;1.50;;;;;;;;;;4540860;28;20482;-66
2021/08/04 05:41:10;;;;;;;2.20;1.73;;;;;;;;;;4542164;28;20064;-66
2021/08/04 05:43:21;;;;;;;1.87;1.70;;;;;;;;;;4543730;28;20029;-66
2021/08/04 05:45:31;;;;;;;1.67;1.40;;;;;;;;;;4542104;28;33028;-66
2021/08/04 05:47:42;;;;;;;2.17;1.57;;;;;;;;;;4540470;28;20056;-66
2021/08/04 05:49:52;;;;;;;2.20;1.70;;;;;;;;;;4541205;28;20575;-65
2021/08/04 05:52:03;;;;;;;1.77;1.60;;;;;;;;;;4544163;28;20041;-66
2021/08/04 05:54:13;;;;;;;2.63;1.50;;;;;;;;;;4543600;28;20493;-66
2021/08/04 05:56:24;;;;;;;2.73;1.60;;;;;;;;;;4544579;28;22794;-66
2021/08/04 05:58:34;;;;;;;3.20;1.60;;;;;;;;;;4545175;28;20099;-66
2021/08/04 06:00:45;;;;;;;2.70;1.60;;;;;;;;;;4544722;28;20041;-66
2021/08/04 06:02:55;;;;;;;1.60;1.30;;;;;;;;;;4541830;28;20122;-66
2021/08/04 06:05:06;;;;;;;1.80;1.40;;;;;;;;;;4543972;28;20038;-66
2021/08/04 06:07:16;;;;;;;2.03;1.60;;;;;;;;;;4543347;28;20091;-66
2021/08/04 06:09:29;;;;;;;1.60;1.40;;;;;;;;;;4544081;28;20847;-65
2021/08/04 06:11:39;;;;;;;1.83;1.30;;;;;;;;;;4544862;28;20038;-66
2021/08/04 06:13:50;;;;;;;1.87;1.57;;;;;;;;;;4543019;28;20052;-66
2021/08/04 06:16:00;;;;;;;1.60;1.30;;;;;;;;;;4546468;28;20099;-66
2021/08/04 06:18:11;;;;;;;2.27;1.30;;;;;;;;;;4544795;28;20048;-66
2021/08/04 06:20:21;;;;;;;1.97;1.33;;;;;;;;;;4543066;28;20038;-66
2021/08/04 06:22:31;;;;;;;1.67;1.20;;;;;;;;;;4545393;28;20032;-66
2021/08/04 06:24:42;;;;;;;1.40;1.30;;;;;;;;;;4544254;28;20064;-67
2021/08/04 06:26:54;;;;;;;1.97;1.20;;;;;;;;;;4545045;28;20056;-66
2021/08/04 06:29:05;;;;;;;1.98;1.17;;;;;;;;;;4544899;28;20595;-66
2021/08/04 06:31:15;;;;;;;2.43;1.40;;;;;;;;;;4543236;28;20053;-66
2021/08/04 06:33:26;;;;;;;1.50;1.20;;;;;;;;;;4542803;28;20095;-66
2021/08/04 06:35:36;;;;;;;2.07;1.30;;;;;;;;;;4543308;28;20029;-66
2021/08/04 06:37:47;;;;;;;1.60;1.20;;;;;;;;;;4544484;28;20069;-66
2021/08/04 06:39:57;;;;;;;1.97;1.20;;;;;;;;;;4542521;28;20072;-66
2021/08/04 06:42:07;;;;;;;1.80;1.30;;;;;;;;;;4546016;28;20485;-66
2021/08/04 06:44:18;;;;;;;1.67;1.30;;;;;;;;;;4544551;28;24628;-66
2021/08/04 06:46:35;;;;;;;1.97;1.27;;;;;;;;;;4545546;28;20556;-66
2021/08/04 06:48:46;;;;;;;1.50;1.20;;;;;;;;;;4544995;28;20083;-66
2021/08/04 06:50:56;;;;;;;2.43;1.40;;;;;;;;;;4542236;28;20129;-66
2021/08/04 06:53:07;;;;;;;1.33;1.13;;;;;;;;;;4529369;28;20064;-66
2021/08/04 06:55:18;;;;;;;1.70;1.27;;;;;;;;;;4542280;28;20034;-66
2021/08/04 06:57:28;;;;;;;1.60;1.33;;;;;;;;;;4541915;28;20572;-66
2021/08/04 06:59:39;;;;;;;1.73;1.10;;;;;;;;;;4543935;28;20033;-66
2021/08/04 07:01:50;;;;;;;3.07;1.63;;;;;;;;;;4543261;28;28600;-67
2021/08/04 07:04:00;;;;;;;1.67;1.23;;;;;;;;;;4545486;28;20067;-67
2021/08/04 07:06:11;;;;;;;1.97;1.17;;;;;;;;;;4542618;28;20079;-66
2021/08/04 07:08:22;;;;;;;1.58;1.00;;;;;;;;;;4542951;28;20159;-66
2021/08/04 07:10:33;;;;;;;2.57;1.03;;;;;;;;;;4543989;28;20099;-66
2021/08/04 07:12:43;;;;;;;1.30;1.10;;;;;;;;;;4544561;28;20046;-66
2021/08/04 07:14:53;;;;;;;1.60;1.27;;;;;;;;;;4543944;28;20822;-65
2021/08/04 07:17:05;;;;;;;2.87;1.40;;;;;;;;;;4545414;28;20032;-65
2021/08/04 07:19:16;;;;;;;1.52;1.27;;;;;;;;;;4541750;28;20536;-66
2021/08/04 07:21:26;;;;;;;2.08;1.27;;;;;;;;;;4541861;28;20037;-66
2021/08/04 07:23:38;;;;;;;1.67;1.13;;;;;;;;;;4544782;28;20472;-66
2021/08/04 07:25:48;;;;;;;1.95;1.30;;;;;;;;;;4543613;28;20040;-66
2021/08/04 07:27:59;;;;;;;1.23;1.07;;;;;;;;;;4540171;28;20029;-66
2021/08/04 07:30:11;;;;;;;2.20;1.33;;;;;;;;;;4541812;28;21161;-66
2021/08/04 07:32:21;;;;;;;3.35;1.50;;;;;;;;;;4542365;28;20040;-66
2021/08/04 07:34:32;;;;;;;1.63;1.40;;;;;;;;;;4543688;28;20064;-65
2021/08/04 07:36:42;;;;;;;1.67;1.30;;;;;;;;;;4542843;28;20037;-66
2021/08/04 07:38:52;;;;;;;1.77;1.43;;;;;;;;;;4542284;28;20087;-66
2021/08/04 07:41:04;;;;;;;2.00;1.17;;;;;;;;;;4541550;28;20032;-66
2021/08/04 07:43:15;;;;;;;1.20;1.08;;;;;;;;;;4543062;28;20395;-65
2021/08/04 07:45:25;;;;;;;1.90;1.37;;;;;;;;;;4543086;28;20033;-66
2021/08/04 07:47:36;;;;;;;1.83;1.40;;;;;;;;;;4543238;28;20099;-66
2021/08/04 07:49:46;;;;;;;2.40;1.30;;;;;;;;;;4544692;28;20029;-66
2021/08/04 07:51:56;;;;;;;1.90;1.33;;;;;;;;;;4557447;28;20041;-66
2021/08/04 07:54:07;;;;;;;1.87;1.60;;;;;;;;;;4541665;28;20041;-66
2021/08/04 07:56:22;;;;;;;2.53;1.63;;;;;;;;;;4539671;28;20029;-66
2021/08/04 07:58:33;;;;;;;2.20;1.40;;;;;;;;;;4540514;28;20803;-67
2021/08/04 08:00:44;;;;;;;1.63;1.30;;;;;;;;;;4543321;28;20120;-66
2021/08/04 08:02:54;;;;;;;1.80;1.50;;;;;;;;;;4542823;28;20026;-66
2021/08/04 08:05:05;;;;;;;1.80;1.50;;;;;;;;;;4544428;28;20041;-66
2021/08/04 08:07:15;;;;;;;2.15;1.67;;;;;;;;;;4543077;28;20071;-67
2021/08/04 08:09:26;;;;;;;2.40;1.57;;;;;;;;;;4542409;28;20029;-66
2021/08/04 08:11:37;;;;;;;2.63;1.50;;;;;;;;;;4542252;28;20062;-67
2021/08/04 08:13:47;;;;;;;2.63;1.50;;;;;;;;;;4541706;28;20048;-66
2021/08/04 08:15:58;;;;;;;1.73;1.33;;;;;;;;;;4543140;28;20076;-67
2021/08/04 08:18:09;;;;;;;1.60;1.40;;;;;;;;;;4543853;28;20051;-66
2021/08/04 08:20:19;;;;;;;2.97;1.77;;;;;;;;;;4541320;28;20618;-67
2021/08/04 08:22:30;;;;;;;2.45;1.95;;;;;;;;;;4542863;28;20040;-67
2021/08/04 08:24:40;;;;;;;3.07;1.87;;;;;;;;;;4542018;28;20029;-66
2021/08/04 08:26:51;;;;;;;2.20;1.70;;;;;;;;;;4544265;28;20037;-66
2021/08/04 08:29:02;;;;;;;1.90;1.70;;;;;;;;;;4539509;28;20683;-66
2021/08/04 08:31:13;;;;;;;2.20;1.85;;;;;;;;;;4542566;28;20037;-67
2021/08/04 08:33:23;;;;;;;2.53;1.77;;;;;;;;;;4542322;28;20473;-67
2021/08/04 08:35:34;;;;;;;2.33;1.70;;;;;;;;;;4540534;28;20029;-67
2021/08/04 08:37:46;;;;;;;2.80;1.93;;;;;;;;;;4538898;28;20040;-66
2021/08/04 08:39:56;;;;;;;2.80;1.75;;;;;;;;;;4540199;28;20258;-67
2021/08/04 08:42:07;;;;;;;2.63;1.70;;;;;;;;;;4543596;28;20052;-66
2021/08/04 08:44:17;;;;;;;2.33;1.80;;;;;;;;;;4543173;28;20570;-66
2021/08/04 08:46:31;;;;;;;2.60;1.90;;;;;;;;;;4544696;28;20037;-66
2021/08/04 08:48:48;;;;;;;2.38;2.17;;;;;;;;;;4541623;28;20033;-67
2021/08/04 08:50:59;;;;;;;2.72;2.10;;;;;;;;;;4539922;28;20041;-66
2021/08/04 08:53:09;;;;;;;3.10;2.30;;;;;;;;;;4524814;28;20411;-66
2021/08/04 08:55:20;;;;;;;2.80;2.20;;;;;;;;;;4538243;28;20139;-66
2021/08/04 08:57:30;;;;;;;3.03;2.60;;;;;;;;;;4541799;28;20508;-66
2021/08/04 08:59:41;;;;;;;3.20;2.60;;;;;;;;;;4540432;28;20037;-66
2021/08/04 09:01:51;;;;;;;2.83;2.27;;;;;;;;;;4542815;28;20025;-66
2021/08/04 09:04:04;;;;;;;3.10;2.47;;;;;;;;;;4542713;28;20493;-66
2021/08/04 09:06:15;;;;;;;3.30;2.60;;;;;;;;;;4541133;28;20083;-67
2021/08/04 09:08:35;;;;;;;2.75;2.15;;;;;;;;;;4543148;28;20681;-66
2021/08/04 09:10:45;;;;;;;3.15;2.20;;;;;;;;;;4543132;28;20040;-66
2021/08/04 09:13:04;;;;;;;3.83;2.67;;;;;;;;;;4542018;28;20038;-66
2021/08/04 09:15:28;;;;;;;3.05;2.50;;;;;;;;;;4544233;28;20033;-67
2021/08/04 09:17:40;;;;;;;3.47;2.40;;;;;;;;;;4543789;28;20028;-66
2021/08/04 09:19:51;;;;;;;3.53;2.70;;;;;;;;;;4541030;28;23438;-66
2021/08/04 09:22:20;;;;;;;3.80;2.75;;;;;;;;;;4541729;28;20060;-66
2021/08/04 09:24:53;;;;;;;3.70;2.45;;;;;;;;;;4535956;28;20104;-67
2021/08/04 09:27:03;;;;;;;3.17;2.47;;;;;;;;;;4544313;28;20033;-66
2021/08/04 09:29:14;;;;;;;3.63;2.80;;;;;;;;;;4544687;28;20029;-67
2021/08/04 09:31:39;;;;;;;3.33;2.80;;;;;;;;;;4547303;28;21834;-66
2021/08/04 09:33:50;;;;;;;3.78;2.90;;;;;;;;;;4545033;28;20607;-66
2021/08/04 09:36:00;;;;;;;3.67;2.80;;;;;;;;;;4544520;28;20130;-66
2021/08/04 09:38:11;;;;;;;3.00;2.40;;;;;;;;;;4543485;28;20493;-67
2021/08/04 09:40:24;;;;;;;2.90;2.37;;;;;;;;;;4546691;28;20409;-66
2021/08/04 09:42:46;;;;;;;3.78;2.70;;;;;;;;;;4545504;28;20040;-67
2021/08/04 09:44:58;;;;;;;3.63;2.88;;;;;;;;;;4545032;28;20037;-66
2021/08/04 09:47:10;;;;;;;3.80;2.30;;;;;;;;;;4546023;28;20033;-66
2021/08/04 09:49:21;;;;;;;3.75;2.60;;;;;;;;;;4543923;28;20025;-66
2021/08/04 09:51:31;;;;;;;3.83;2.97;;;;;;;;;;4544322;28;20033;-66
2021/08/04 09:53:46;;;;;;;3.80;3.10;;;;;;;;;;4545294;28;24791;-66
2021/08/04 09:56:10;;;;;;;4.22;2.70;;;;;;;;;;4545666;28;20037;-66
2021/08/04 09:58:24;;;;;;;3.78;2.80;;;;;;;;;;4544585;28;20645;-66
2021/08/04 10:00:34;;;;;;;3.88;2.70;;;;;;;;;;4543193;28;20041;-66
2021/08/04 10:02:45;;;;;;;2.90;2.53;;;;;;;;;;4544831;28;20041;-66
2021/08/04 10:05:17;;;;;;;3.13;2.47;;;;;;;;;;4545309;28;20037;-66
2021/08/04 10:07:28;;;;;;;4.45;2.78;;;;;;;;;;4528236;28;20045;-67
2021/08/04 10:09:38;;;;;;;3.87;2.80;;;;;;;;;;4546061;28;20421;-66
2021/08/04 10:11:50;;;;;;;3.67;3.00;;;;;;;;;;4544279;28;20478;-66
2021/08/04 10:14:00;;;;;;;3.45;2.80;;;;;;;;;;4542875;28;20044;-66
2021/08/04 10:16:11;;;;;;;3.80;2.60;;;;;;;;;;4545546;28;20049;-67
2021/08/04 10:18:26;;;;;;;4.63;3.03;;;;;;;;;;4540598;28;20104;-66
2021/08/04 10:20:37;;;;;;;2.88;2.42;;;;;;;;;;4537027;28;20033;-66
2021/08/04 10:22:48;;;;;;;2.88;2.17;;;;;;;;;;4544679;28;20036;-66
2021/08/04 10:24:58;;;;;;;3.60;2.35;;;;;;;;;;4543375;28;20044;-66
2021/08/04 10:27:09;;;;;;;2.57;2.00;;;;;;;;;;4543451;28;20033;-67
2021/08/04 10:29:20;;;;;;;3.17;2.17;;;;;;;;;;4543906;28;20033;-67
2021/08/04 10:31:31;;;;;;;3.08;2.35;;;;;;;;;;4526438;28;20120;-66
2021/08/04 10:33:42;;;;;;;3.05;2.25;;;;;;;;;;4542444;28;20588;-67
2021/08/04 10:35:57;;;;;;;3.75;2.40;;;;;;;;;;4545030;28;20995;-67
2021/08/04 10:38:09;;;;;;;2.75;2.17;;;;;;;;;;4544210;28;20037;-66
2021/08/04 10:40:23;;;;;;;2.88;2.03;;;;;;;;;;4544720;28;20146;-67
2021/08/04 10:42:38;;;;;;;2.55;2.10;;;;;;;;;;4543503;28;20047;-67
2021/08/04 10:44:48;;;;;;;2.35;1.90;;;;;;;;;;4543365;28;20529;-67
2021/08/04 10:47:02;;;;;;;2.90;1.93;;;;;;;;;;4544083;28;20041;-67
2021/08/04 10:49:18;;;;;;;2.40;2.15;;;;;;;;;;4543300;28;20099;-67
2021/08/04 10:51:28;;;;;;;2.20;1.92;;;;;;;;;;4541945;28;20033;-67
2021/08/04 10:54:00;;;;;;;2.53;1.90;;;;;;;;;;4545171;28;20099;-66
2021/08/04 10:56:11;;;;;;;2.60;1.98;;;;;;;;;;4542987;28;20047;-66
2021/08/04 10:58:21;;;;;;;2.40;1.77;;;;;;;;;;4544005;28;20393;-67
2021/08/04 11:00:35;;;;;;;1.93;1.73;;;;;;;;;;4526389;28;20030;-66
2021/08/04 11:02:45;;;;;;;1.98;1.60;;;;;;;;;;4544048;28;20028;-67
2021/08/04 11:04:56;;;;;;;1.83;1.53;;;;;;;;;;4543511;28;20584;-66
2021/08/04 11:07:07;;;;;;;3.13;1.90;;;;;;;;;;4544747;28;20041;-67
2021/08/04 11:09:17;;;;;;;2.37;1.53;;;;;;;;;;4544955;28;20033;-66
2021/08/04 11:11:57;;;;;;;2.40;1.60;;;;;;;;;;4544416;28;20112;-66
2021/08/04 11:14:08;;;;;;;3.50;1.63;;;;;;;;;;4532212;28;20140;-66
2021/08/04 11:16:28;;;;;;;2.07;1.60;;;;;;;;;;4539427;28;23038;-67
2021/08/04 11:19:07;;;;;;;1.58;1.35;;;;;;;;;;4544045;28;20116;-66
2021/08/04 11:21:17;;;;;;;2.30;1.30;;;;;;;;;;4544289;28;20689;-67
2021/08/04 11:23:48;;;;;;;1.20;1.10;;;;;;;;;;4544712;28;20430;-67
2021/08/04 11:26:22;;;;;;;2.58;1.65;;;;;;;;;;4543068;28;20040;-66
2021/08/04 11:28:44;;;;;;;2.08;1.60;;;;;;;;;;4541321;28;20032;-67
2021/08/04 11:30:55;;;;;;;1.88;1.50;;;;;;;;;;4544951;28;20024;-65
2021/08/04 11:33:17;;;;;;;2.35;1.67;;;;;;;;;;4542375;28;20053;-66
2021/08/04 11:35:28;;;;;;;1.38;1.27;;;;;;;;;;4543183;28;20607;-66
2021/08/04 11:37:42;;;;;;;1.47;1.17;;;;;;;;;;4543381;28;20471;-66
2021/08/04 11:40:00;;;;;;;1.60;1.40;;;;;;;;;;4543423;28;20172;-66
2021/08/04 11:42:14;;;;;;;2.75;1.50;;;;;;;;;;4542954;28;20073;-65
2021/08/04 11:44:28;;;;;;;2.08;1.55;;;;;;;;;;4542793;28;20144;-66
2021/08/04 11:46:44;;;;;;;1.55;1.33;;;;;;;;;;4541852;28;20144;-66
2021/08/04 11:48:54;;;;;;;1.60;1.30;;;;;;;;;;4544908;28;20033;-66
2021/08/04 11:51:05;;;;;;;2.50;1.63;;;;;;;;;;4543606;28;20528;-66
2021/08/04 11:53:15;;;;;;;1.97;1.60;;;;;;;;;;4525267;28;20053;-66
2021/08/04 11:55:26;;;;;;;2.47;1.80;;;;;;;;;;4542899;28;20129;-65
2021/08/04 11:57:43;;;;;;;1.40;1.30;;;;;;;;;;4543160;28;20082;-66
2021/08/04 11:59:58;;;;;;;1.83;1.20;;;;;;;;;;4544119;28;20037;-66
2021/08/04 12:02:09;;;;;;;1.92;1.50;;;;;;;;;;4543216;28;20021;-66
2021/08/04 12:04:19;;;;;;;1.70;1.10;;;;;;;;;;4543118;28;20646;-65
2021/08/04 12:06:30;;;;;;;1.53;1.30;;;;;;;;;;4545306;28;20037;-65
2021/08/04 12:08:40;;;;;;;2.63;1.40;;;;;;;;;;4545563;28;20037;-66
2021/08/04 12:10:51;;;;;;;1.87;1.20;;;;;;;;;;4543885;28;20035;-66
2021/08/04 12:13:04;;;;;;;1.93;1.10;;;;;;;;;;4543982;28;20043;-65
2021/08/04 12:15:21;;;;;;;1.00;0.93;;;;;;;;;;4532818;28;21039;-65
2021/08/04 12:17:35;;;;;;;1.25;1.10;;;;;;;;;;4541952;28;20182;-66
2021/08/04 12:19:45;;;;;;;1.33;1.20;;;;;;;;;;4543156;28;20048;-66
2021/08/04 12:21:56;;;;;;;1.70;1.10;;;;;;;;;;4543305;28;20036;-66
2021/08/04 12:24:07;;;;;;;1.60;1.30;;;;;;;;;;4542689;28;20029;-66
2021/08/04 12:26:17;;;;;;;1.40;1.30;;;;;;;;;;4544082;28;20555;-66
2021/08/04 12:28:29;;;;;;;2.30;1.20;;;;;;;;;;4540630;28;20041;-66
2021/08/04 12:30:43;;;;;;;2.30;1.40;;;;;;;;;;4542158;28;20021;-66
2021/08/04 12:33:05;;;;;;;2.17;1.25;;;;;;;;;;4542447;28;20077;-66
2021/08/04 12:35:22;;;;;;;1.27;1.17;;;;;;;;;;4528664;28;20033;-65
2021/08/04 12:37:32;;;;;;;2.42;1.20;;;;;;;;;;4540913;28;20037;-66
2021/08/04 12:39:44;;;;;;;3.50;1.77;;;;;;;;;;4543195;28;20041;-64
2021/08/04 12:41:54;;;;;;;3.10;1.80;;;;;;;;;;4526840;28;20160;-64
2021/08/04 12:44:15;;;;;;;4.07;2.13;;;;;;;;;;4546634;28;20043;-64
2021/08/04 12:46:26;;;;;;;2.90;1.63;;;;;;;;;;4543222;28;20040;-64
2021/08/04 12:48:42;;;;;;;2.28;1.50;;;;;;;;;;4545170;28;20040;-64
2021/08/04 12:50:58;;;;;;;2.40;1.48;;;;;;;;;;4542180;28;20025;-64
2021/08/04 12:53:20;;;;;;;2.83;1.60;;;;;;;;;;4525736;28;20127;-64
2021/08/04 12:55:31;;;;;;;1.40;1.27;;;;;;;;;;4527497;28;20223;-64
2021/08/04 12:57:41;;;;;;;2.03;1.40;;;;;;;;;;4525262;28;20173;-64
2021/08/04 12:59:52;;;;;;;1.47;1.30;;;;;;;;;;4542338;28;20037;-64
2021/08/04 13:02:10;;;;;;;2.50;1.50;;;;;;;;;;4544448;28;20072;-64
2021/08/04 13:04:31;;;;;;;1.70;1.10;;;;;;;;;;4545719;28;20033;-63
2021/08/04 13:07:01;;;;;;;1.65;1.40;;;;;;;;;;4542404;28;20707;-64
2021/08/04 13:09:11;;;;;;;2.30;1.40;;;;;;;;;;4528717;28;21395;-60
2021/08/04 13:11:26;;;;;;;1.53;1.23;;;;;;;;;;4545804;28;20037;-62
2021/08/04 13:14:02;;;;;;;1.25;1.15;;;;;;;;;;4545344;28;20033;-63
2021/08/04 13:25:55;;;;;;;2.20;1.30;;;;;;;;;;4578259;27;21148;-62